Time;durP1;ratioP1;P1;durP2;ratioP2;P2;SDS_P1;SDS_P2;PMS_P1;PMS_P2;Temp;Humidity;BMP_temperature;BMP_pressure;BME280_temperature;BME280_humidity;BME280_pressure;Samples;Min_cycle;Max_cycle;Signal;HPM_P1;HPM_P2
2021/03/30 00:02:00;;;;;;;3.28;2.28;;;;;;;;;;5054885;28;20052;-58
2021/03/30 00:04:26;;;;;;;4.15;3.17;;;;;;;;;;5055023;28;20428;-58
2021/03/30 00:06:58;;;;;;;8.43;2.88;;;;;;;;;;5054259;28;20033;-58
2021/03/30 00:09:24;;;;;;;8.32;2.70;;;;;;;;;;5054664;28;20109;-58
2021/03/30 00:11:50;;;;;;;6.50;3.30;;;;;;;;;;5054009;28;20021;-58
2021/03/30 00:14:19;;;;;;;3.47;1.75;;;;;;;;;;5054908;28;20021;-58
2021/03/30 00:16:46;;;;;;;3.92;2.13;;;;;;;;;;5054282;28;20021;-58
2021/03/30 00:19:14;;;;;;;5.63;3.05;;;;;;;;;;5054291;28;20028;-58
2021/03/30 00:21:43;;;;;;;6.95;3.53;;;;;;;;;;5036819;28;20040;-58
2021/03/30 00:24:09;;;;;;;5.15;2.88;;;;;;;;;;5036623;28;20059;-58
2021/03/30 00:26:35;;;;;;;4.95;2.75;;;;;;;;;;5036293;28;20032;-58
2021/03/30 00:29:05;;;;;;;2.72;2.10;;;;;;;;;;5054519;28;20025;-58
2021/03/30 00:31:31;;;;;;;4.53;1.90;;;;;;;;;;5054102;28;20029;-58
2021/03/30 00:34:06;;;;;;;5.93;2.60;;;;;;;;;;5054149;28;20378;-58
2021/03/30 00:36:34;;;;;;;4.05;2.05;;;;;;;;;;5054140;28;20035;-58
2021/03/30 00:39:01;;;;;;;2.97;1.95;;;;;;;;;;5053921;28;20028;-58
2021/03/30 00:41:27;;;;;;;3.47;2.15;;;;;;;;;;5053885;28;20026;-58
2021/03/30 00:43:56;;;;;;;5.78;3.45;;;;;;;;;;5053826;28;20045;-58
2021/03/30 00:46:25;;;;;;;4.68;2.90;;;;;;;;;;5053705;28;20221;-58
2021/03/30 00:48:52;;;;;;;5.95;3.63;;;;;;;;;;5053692;28;20049;-58
2021/03/30 00:51:19;;;;;;;5.90;3.72;;;;;;;;;;5053686;28;20025;-58
2021/03/30 00:53:53;;;;;;;4.93;3.70;;;;;;;;;;5053727;28;20036;-58
2021/03/30 00:56:30;;;;;;;5.15;3.40;;;;;;;;;;5035882;28;20032;-58
2021/03/30 00:59:01;;;;;;;5.63;3.53;;;;;;;;;;5035940;28;20086;-58
2021/03/30 01:01:30;;;;;;;6.05;3.97;;;;;;;;;;5035132;28;20025;-58
2021/03/30 01:03:56;;;;;;;4.70;3.50;;;;;;;;;;5035497;28;20538;-58
2021/03/30 01:06:23;;;;;;;3.90;3.25;;;;;;;;;;5035345;28;20460;-58
2021/03/30 01:09:07;;;;;;;5.30;3.53;;;;;;;;;;5035357;28;20032;-58
2021/03/30 01:11:42;;;;;;;5.32;3.53;;;;;;;;;;5053311;28;20033;-58
2021/03/30 01:14:25;;;;;;;10.40;4.35;;;;;;;;;;5036308;28;20355;-58
2021/03/30 01:17:02;;;;;;;6.80;3.65;;;;;;;;;;5053905;28;20021;-58
2021/03/30 01:19:51;;;;;;;7.57;4.60;;;;;;;;;;5053877;28;20025;-58
2021/03/30 01:22:36;;;;;;;4.63;3.38;;;;;;;;;;5019419;28;20127;-58
2021/03/30 01:25:17;;;;;;;5.07;3.65;;;;;;;;;;5052471;28;20033;-58
2021/03/30 01:28:00;;;;;;;5.50;3.00;;;;;;;;;;5034934;28;20410;-58
2021/03/30 01:30:33;;;;;;;5.82;3.70;;;;;;;;;;5018262;28;20078;-58
2021/03/30 01:33:07;;;;;;;9.63;4.43;;;;;;;;;;5035441;28;20037;-58
2021/03/30 01:35:37;;;;;;;5.72;4.22;;;;;;;;;;5052963;28;20029;-58
2021/03/30 01:38:05;;;;;;;8.33;5.03;;;;;;;;;;5052660;28;20056;-58
2021/03/30 01:40:36;;;;;;;6.05;4.00;;;;;;;;;;5034891;28;20279;-58
2021/03/30 01:43:05;;;;;;;5.95;4.10;;;;;;;;;;5053483;28;20033;-58
2021/03/30 01:45:32;;;;;;;8.80;4.00;;;;;;;;;;5053652;28;20029;-58
2021/03/30 01:48:04;;;;;;;8.10;4.13;;;;;;;;;;5052501;28;20025;-58
2021/03/30 01:50:30;;;;;;;5.18;4.10;;;;;;;;;;5035040;28;20036;-58
2021/03/30 01:52:57;;;;;;;8.50;3.40;;;;;;;;;;5053128;28;20029;-58
2021/03/30 01:55:26;;;;;;;6.55;3.42;;;;;;;;;;5034761;28;20029;-58
2021/03/30 01:57:59;;;;;;;9.18;4.32;;;;;;;;;;5018130;28;20032;-58
2021/03/30 02:00:28;;;;;;;5.45;3.35;;;;;;;;;;5035026;28;20033;-58
2021/03/30 02:02:57;;;;;;;10.15;3.70;;;;;;;;;;5034266;28;20344;-58
2021/03/30 02:05:25;;;;;;;7.03;4.22;;;;;;;;;;5052683;28;20040;-58
2021/03/30 02:07:55;;;;;;;7.03;3.70;;;;;;;;;;5018221;28;20029;-58
2021/03/30 02:10:35;;;;;;;5.70;3.85;;;;;;;;;;5053178;28;20090;-58
2021/03/30 02:13:07;;;;;;;7.40;3.50;;;;;;;;;;5052600;28;20127;-58
2021/03/30 02:15:36;;;;;;;5.45;3.60;;;;;;;;;;5052672;28;20525;-58
2021/03/30 02:18:18;;;;;;;8.70;4.35;;;;;;;;;;5052518;28;20017;-58
2021/03/30 02:20:52;;;;;;;6.68;3.92;;;;;;;;;;5052497;28;20028;-58
2021/03/30 02:23:22;;;;;;;7.47;3.65;;;;;;;;;;5052615;28;20443;-58
2021/03/30 02:25:52;;;;;;;8.23;3.38;;;;;;;;;;5052517;28;20029;-58
2021/03/30 02:28:47;;;;;;;5.72;4.13;;;;;;;;;;5034887;28;20040;-58
2021/03/30 02:31:20;;;;;;;7.07;3.88;;;;;;;;;;5036008;28;20067;-58
2021/03/30 02:33:53;;;;;;;5.18;3.05;;;;;;;;;;5018555;28;20362;-58
2021/03/30 02:36:26;;;;;;;5.93;3.15;;;;;;;;;;5054994;28;20025;-58
2021/03/30 02:38:57;;;;;;;9.27;3.60;;;;;;;;;;5039426;28;20021;-58
2021/03/30 02:41:27;;;;;;;8.52;4.10;;;;;;;;;;5036091;28;20128;-58
2021/03/30 02:44:02;;;;;;;7.40;4.07;;;;;;;;;;5037399;28;20072;-58
2021/03/30 02:46:36;;;;;;;5.95;3.83;;;;;;;;;;5055661;28;20086;-58
2021/03/30 02:49:14;;;;;;;8.13;4.18;;;;;;;;;;5055443;28;20029;-58
2021/03/30 02:51:44;;;;;;;8.27;3.75;;;;;;;;;;5055415;28;20482;-58
2021/03/30 02:54:22;;;;;;;5.43;3.28;;;;;;;;;;5055878;28;20024;-58
2021/03/30 02:56:54;;;;;;;8.50;4.22;;;;;;;;;;5022597;28;20356;-58
2021/03/30 02:59:28;;;;;;;9.07;4.63;;;;;;;;;;5037852;28;20061;-58
2021/03/30 03:02:07;;;;;;;5.82;3.28;;;;;;;;;;5055334;28;20106;-58
2021/03/30 03:04:33;;;;;;;7.57;3.72;;;;;;;;;;5054905;28;20041;-58
2021/03/30 03:07:08;;;;;;;7.82;4.07;;;;;;;;;;5055439;28;20052;-58
2021/03/30 03:09:45;;;;;;;12.18;4.05;;;;;;;;;;5037196;28;20025;-58
2021/03/30 03:12:12;;;;;;;9.98;4.13;;;;;;;;;;5055966;28;20047;-58
2021/03/30 03:14:45;;;;;;;6.05;3.60;;;;;;;;;;5037310;28;20055;-58
2021/03/30 03:17:18;;;;;;;5.97;3.53;;;;;;;;;;5037766;28;20534;-58
2021/03/30 03:19:52;;;;;;;6.13;4.05;;;;;;;;;;5055495;28;20017;-58
2021/03/30 03:22:24;;;;;;;4.95;3.20;;;;;;;;;;5055106;28;20064;-58
2021/03/30 03:25:01;;;;;;;7.47;3.35;;;;;;;;;;5055238;28;20138;-58
2021/03/30 03:27:39;;;;;;;5.13;3.33;;;;;;;;;;5037213;28;20040;-58
2021/03/30 03:30:11;;;;;;;6.75;3.60;;;;;;;;;;5037212;28;20028;-58
2021/03/30 03:32:46;;;;;;;6.72;3.75;;;;;;;;;;5055578;28;20021;-58
2021/03/30 03:35:21;;;;;;;5.22;3.42;;;;;;;;;;5055290;28;20029;-58
2021/03/30 03:38:12;;;;;;;5.63;3.97;;;;;;;;;;5054773;28;20064;-58
2021/03/30 03:40:53;;;;;;;6.90;3.78;;;;;;;;;;5055071;28;20159;-58
2021/03/30 03:43:19;;;;;;;;;;;;;;;;;;5037266;28;20037;-58
2021/03/30 03:45:51;;;;;;;6.40;3.58;;;;;;;;;;5054998;28;20385;-58
2021/03/30 03:48:31;;;;;;;4.70;3.40;;;;;;;;;;5054740;28;20029;-58
2021/03/30 03:51:08;;;;;;;8.13;4.80;;;;;;;;;;5054914;28;20032;-58
2021/03/30 03:53:48;;;;;;;7.57;3.78;;;;;;;;;;5055327;28;20029;-58
2021/03/30 03:56:25;;;;;;;7.00;3.63;;;;;;;;;;5036511;28;20036;-58
2021/03/30 03:59:03;;;;;;;8.75;3.67;;;;;;;;;;5055345;28;20059;-58
2021/03/30 04:01:46;;;;;;;5.95;3.95;;;;;;;;;;5036750;28;20037;-58
2021/03/30 04:04:16;;;;;;;9.73;3.65;;;;;;;;;;5035796;28;20052;-58
2021/03/30 04:06:47;;;;;;;4.40;3.30;;;;;;;;;;5055261;28;20033;-58
2021/03/30 04:09:27;;;;;;;6.60;3.80;;;;;;;;;;5020256;28;20041;-58
2021/03/30 04:11:58;;;;;;;6.18;3.50;;;;;;;;;;5020999;28;20045;-58
2021/03/30 04:14:28;;;;;;;5.95;4.00;;;;;;;;;;5036077;28;20033;-58
2021/03/30 04:16:55;;;;;;;6.43;3.63;;;;;;;;;;5054551;28;20088;-58
2021/03/30 04:19:24;;;;;;;5.72;3.35;;;;;;;;;;5054494;28;20021;-58
2021/03/30 04:21:58;;;;;;;6.50;3.80;;;;;;;;;;5036235;28;20032;-58
2021/03/30 04:24:27;;;;;;;6.75;3.92;;;;;;;;;;5054144;28;20029;-58
2021/03/30 04:26:55;;;;;;;5.40;3.35;;;;;;;;;;5036405;28;20474;-58
2021/03/30 04:32:23;;;;;;;7.72;3.75;;;;;;;;;;5053832;28;20111;-58
2021/03/30 04:35:05;;;;;;;7.10;4.38;;;;;;;;;;5054207;28;20125;-58
2021/03/30 04:37:43;;;;;;;10.10;3.90;;;;;;;;;;5053864;28;20017;-58
2021/03/30 04:40:17;;;;;;;9.18;3.90;;;;;;;;;;5053217;28;20107;-58
2021/03/30 04:42:53;;;;;;;11.63;4.07;;;;;;;;;;5054127;28;20537;-58
2021/03/30 04:45:34;;;;;;;7.30;3.80;;;;;;;;;;5054421;28;20017;-58
2021/03/30 04:48:25;;;;;;;4.38;3.03;;;;;;;;;;5053479;28;20363;-58
2021/03/30 04:51:14;;;;;;;6.03;3.72;;;;;;;;;;5054224;28;20052;-59
2021/03/30 04:53:50;;;;;;;8.43;4.43;;;;;;;;;;5035320;28;20033;-59
2021/03/30 04:56:28;;;;;;;7.60;3.67;;;;;;;;;;5053142;28;20021;-58
2021/03/30 04:59:01;;;;;;;5.28;3.35;;;;;;;;;;5052826;28;20021;-58
2021/03/30 05:01:36;;;;;;;7.63;3.42;;;;;;;;;;5054120;28;20021;-58
2021/03/30 05:04:26;;;;;;;;;;;;;;;;;;;;;
2021/03/30 05:06:52;;;;;;;6.35;3.90;;;;;;;;;;4982938;28;20490;-58
2021/03/30 05:09:37;;;;;;;9.75;3.25;;;;;;;;;;5033661;28;20030;-59
2021/03/30 05:12:07;;;;;;;5.78;3.70;;;;;;;;;;5031664;28;20305;-59
2021/03/30 05:14:41;;;;;;;5.20;4.07;;;;;;;;;;5033737;28;20438;-58
2021/03/30 05:17:11;;;;;;;10.05;4.47;;;;;;;;;;5033326;28;20029;-58
2021/03/30 05:20:06;;;;;;;14.77;5.78;;;;;;;;;;5033349;28;20459;-58
2021/03/30 05:23:00;;;;;;;3.80;3.05;;;;;;;;;;5033326;28;20032;-58
2021/03/30 05:25:41;;;;;;;6.53;4.30;;;;;;;;;;5034040;28;20479;-58
2021/03/30 05:28:10;;;;;;;4.43;3.05;;;;;;;;;;5033752;28;20433;-58
2021/03/30 05:30:40;;;;;;;7.10;3.63;;;;;;;;;;5033425;28;20112;-58
2021/03/30 05:33:39;;;;;;;4.50;3.70;;;;;;;;;;5014168;28;20037;-58
2021/03/30 05:36:18;;;;;;;6.28;3.53;;;;;;;;;;4990324;28;20136;-59
2021/03/30 05:38:50;;;;;;;7.25;4.22;;;;;;;;;;5033199;28;20030;-58
2021/03/30 05:41:46;;;;;;;;;;;;;;;;;;;;;
2021/03/30 05:44:22;;;;;;;8.50;4.60;;;;;;;;;;5030928;28;20071;-58
2021/03/30 05:47:20;;;;;;;4.25;3.83;;;;;;;;;;5033172;28;20104;-58
2021/03/30 05:49:55;;;;;;;5.43;4.70;;;;;;;;;;5032725;28;20025;-59
2021/03/30 05:52:36;;;;;;;9.13;3.80;;;;;;;;;;5009357;28;20029;-58
2021/03/30 05:55:03;;;;;;;7.40;4.55;;;;;;;;;;5033102;28;20419;-59
2021/03/30 05:57:48;;;;;;;4.57;3.10;;;;;;;;;;5032493;28;20032;-59
2021/03/30 06:00:22;;;;;;;4.53;3.33;;;;;;;;;;5032716;28;20084;-59
2021/03/30 06:02:52;;;;;;;4.55;3.25;;;;;;;;;;4982307;28;20207;-59
2021/03/30 06:05:18;;;;;;;7.38;3.78;;;;;;;;;;4990807;28;20122;-59
2021/03/30 06:07:45;;;;;;;6.10;3.33;;;;;;;;;;4991638;28;20034;-59
2021/03/30 06:10:30;;;;;;;;;;;;;;;;;;;;;
2021/03/30 06:13:10;;;;;;;4.93;3.53;;;;;;;;;;4985282;28;20042;-59
2021/03/30 06:15:40;;;;;;;16.02;3.72;;;;;;;;;;5010344;28;20081;-59
2021/03/30 06:18:20;;;;;;;8.07;3.25;;;;;;;;;;4994895;28;20022;-59
2021/03/30 06:24:03;;;;;;;8.77;3.17;;;;;;;;;;4977298;28;20050;-59
2021/03/30 06:26:41;;;;;;;3.95;2.63;;;;;;;;;;5011601;28;20037;-59
2021/03/30 06:29:23;;;;;;;6.70;2.95;;;;;;;;;;4995320;28;20038;-59
2021/03/30 06:32:20;;;;;;;5.93;3.45;;;;;;;;;;4994959;28;20528;-59
2021/03/30 06:34:58;;;;;;;3.33;2.47;;;;;;;;;;5029261;28;20124;-59
2021/03/30 06:37:30;;;;;;;6.03;3.05;;;;;;;;;;5038866;28;20367;-59
2021/03/30 06:40:04;;;;;;;6.18;3.05;;;;;;;;;;5056247;28;20036;-59
2021/03/30 06:45:25;;;;;;;3.30;2.40;;;;;;;;;;5056341;28;20064;-58
2021/03/30 06:48:13;;;;;;;4.45;3.47;;;;;;;;;;5038090;28;20036;-59
2021/03/30 06:50:40;;;;;;;4.82;2.45;;;;;;;;;;5023263;28;20021;-59
2021/03/30 06:53:10;;;;;;;4.68;3.25;;;;;;;;;;5037710;28;20186;-59
2021/03/30 06:55:56;;;;;;;5.50;2.80;;;;;;;;;;5055988;28;20025;-59
2021/03/30 06:58:37;;;;;;;5.47;3.63;;;;;;;;;;5056424;28;20467;-59
2021/03/30 07:01:24;;;;;;;4.10;2.50;;;;;;;;;;5038040;28;20040;-59
2021/03/30 07:04:16;;;;;;;5.45;2.90;;;;;;;;;;5053988;28;20499;-59
2021/03/30 07:06:59;;;;;;;5.72;3.17;;;;;;;;;;5056604;28;20041;-59
2021/03/30 07:09:35;;;;;;;4.07;2.97;;;;;;;;;;5037536;28;20029;-59
2021/03/30 07:12:36;;;;;;;5.80;2.67;;;;;;;;;;5055976;28;20083;-55
2021/03/30 07:15:05;;;;;;;4.00;2.63;;;;;;;;;;4958332;28;20081;-58
2021/03/30 07:18:01;;;;;;;5.55;3.33;;;;;;;;;;5040857;28;20239;-56
2021/03/30 07:20:40;;;;;;;3.10;2.08;;;;;;;;;;5056178;28;20039;-57
2021/03/30 07:23:41;;;;;;;5.00;3.45;;;;;;;;;;5054597;28;20116;-57
2021/03/30 07:29:08;;;;;;;8.90;3.35;;;;;;;;;;5032185;28;19909;-58
2021/03/30 07:32:03;;;;;;;4.45;3.30;;;;;;;;;;5038440;28;20459;-57
2021/03/30 07:34:35;;;;;;;5.30;2.92;;;;;;;;;;5037229;28;20036;-58
2021/03/30 07:37:15;;;;;;;7.75;3.67;;;;;;;;;;5055572;28;20021;-58
2021/03/30 07:39:47;;;;;;;4.17;3.40;;;;;;;;;;5055202;28;20433;-58
2021/03/30 07:42:13;;;;;;;6.72;2.85;;;;;;;;;;5036997;28;20761;-57
2021/03/30 07:44:40;;;;;;;8.80;2.90;;;;;;;;;;5055442;28;20103;-57
2021/03/30 07:47:19;;;;;;;7.85;3.58;;;;;;;;;;5036804;28;20040;-57
2021/03/30 07:49:57;;;;;;;6.40;2.97;;;;;;;;;;5055571;28;20036;-57
2021/03/30 07:52:28;;;;;;;5.75;3.72;;;;;;;;;;5054671;28;20043;-57
2021/03/30 07:55:14;;;;;;;4.35;3.58;;;;;;;;;;5037512;28;20041;-58
2021/03/30 07:58:02;;;;;;;6.28;3.28;;;;;;;;;;5036770;28;20498;-57
2021/03/30 08:00:51;;;;;;;7.43;2.92;;;;;;;;;;5036583;28;20028;-57
2021/03/30 08:03:24;;;;;;;4.13;2.85;;;;;;;;;;5054876;28;20045;-58
2021/03/30 08:06:27;;;;;;;6.35;3.20;;;;;;;;;;5055358;28;20083;-57
2021/03/30 08:09:11;;;;;;;7.55;3.33;;;;;;;;;;4995516;28;20055;-57
2021/03/30 08:14:36;;;;;;;8.43;3.05;;;;;;;;;;5054675;28;20035;-58
2021/03/30 08:17:08;;;;;;;4.40;3.22;;;;;;;;;;5055030;28;20035;-58
2021/03/30 08:20:01;;;;;;;5.70;3.38;;;;;;;;;;5036325;28;20021;-59
2021/03/30 08:22:41;;;;;;;5.47;3.58;;;;;;;;;;5039581;28;20170;-60
2021/03/30 08:25:27;;;;;;;4.53;3.00;;;;;;;;;;5053752;28;20036;-58
2021/03/30 08:27:59;;;;;;;3.67;2.78;;;;;;;;;;5036600;28;20080;-58
2021/03/30 08:30:28;;;;;;;6.10;2.58;;;;;;;;;;5054099;28;20029;-58
2021/03/30 08:32:58;;;;;;;3.33;2.88;;;;;;;;;;5053584;28;20029;-58
2021/03/30 08:35:30;;;;;;;5.93;2.78;;;;;;;;;;5035695;28;20120;-58
2021/03/30 08:38:02;;;;;;;4.70;2.88;;;;;;;;;;5054010;28;20459;-59
2021/03/30 08:40:40;;;;;;;4.60;2.80;;;;;;;;;;5036677;28;20336;-58
2021/03/30 08:43:16;;;;;;;4.75;3.33;;;;;;;;;;5054280;28;20367;-58
2021/03/30 08:46:08;;;;;;;5.93;2.95;;;;;;;;;;5053753;28;20028;-58
2021/03/30 08:48:48;;;;;;;3.78;2.72;;;;;;;;;;5031936;28;20395;-58
2021/03/30 08:51:22;;;;;;;5.57;2.97;;;;;;;;;;5053390;28;20020;-58
2021/03/30 08:53:53;;;;;;;5.28;3.30;;;;;;;;;;5053612;28;20485;-59
2021/03/30 08:56:31;;;;;;;9.05;3.10;;;;;;;;;;5036008;28;20021;-58
2021/03/30 08:58:58;;;;;;;7.80;3.35;;;;;;;;;;5035822;28;20116;-59
2021/03/30 09:01:25;;;;;;;4.38;2.88;;;;;;;;;;5053016;28;20021;-58
2021/03/30 09:03:57;;;;;;;5.47;3.03;;;;;;;;;;5035048;28;20511;-59
2021/03/30 09:06:38;;;;;;;;;;;;;;;;;;;;;
2021/03/30 09:09:07;;;;;;;3.30;2.90;;;;;;;;;;5033139;28;20037;-59
2021/03/30 09:11:39;;;;;;;5.13;3.20;;;;;;;;;;5053821;28;20098;-59
2021/03/30 09:14:09;;;;;;;5.13;3.42;;;;;;;;;;5034871;28;20060;-59
2021/03/30 09:16:39;;;;;;;7.25;3.10;;;;;;;;;;5035011;28;20083;-59
2021/03/30 09:19:29;;;;;;;5.43;3.47;;;;;;;;;;5052492;28;20029;-59
2021/03/30 09:22:06;;;;;;;6.80;3.60;;;;;;;;;;5053470;28;20033;-59
2021/03/30 09:27:20;;;;;;;3.58;2.88;;;;;;;;;;5053099;28;20029;-59
2021/03/30 09:29:47;;;;;;;6.13;3.08;;;;;;;;;;5053323;28;20021;-59
2021/03/30 09:32:16;;;;;;;8.02;3.45;;;;;;;;;;5036165;28;20028;-59
2021/03/30 09:34:44;;;;;;;4.65;3.00;;;;;;;;;;5034862;28;20037;-59
2021/03/30 09:37:10;;;;;;;13.40;3.30;;;;;;;;;;5034792;28;20379;-59
2021/03/30 09:39:41;;;;;;;7.30;3.97;;;;;;;;;;5053059;28;20482;-59
2021/03/30 09:42:10;;;;;;;4.82;3.35;;;;;;;;;;5035432;28;20371;-59
2021/03/30 09:44:42;;;;;;;5.82;3.65;;;;;;;;;;5052608;28;20033;-59
2021/03/30 09:47:22;;;;;;;4.65;3.47;;;;;;;;;;5038955;28;20033;-59
2021/03/30 09:49:52;;;;;;;8.27;3.53;;;;;;;;;;5056754;28;20043;-59
2021/03/30 09:52:19;;;;;;;5.53;3.55;;;;;;;;;;5057223;28;20017;-59
2021/03/30 09:54:45;;;;;;;5.72;3.75;;;;;;;;;;5038407;28;20082;-59
2021/03/30 09:57:21;;;;;;;5.65;3.55;;;;;;;;;;5056751;28;20029;-59
2021/03/30 09:59:48;;;;;;;6.70;3.90;;;;;;;;;;5056768;28;20186;-59
2021/03/30 10:02:16;;;;;;;6.05;3.67;;;;;;;;;;5056623;28;20040;-59
2021/03/30 10:04:43;;;;;;;6.82;3.92;;;;;;;;;;5038476;28;20053;-59
2021/03/30 10:07:13;;;;;;;5.65;4.05;;;;;;;;;;5056991;28;20382;-59
2021/03/30 10:09:56;;;;;;;5.05;3.45;;;;;;;;;;5056789;28;20032;-59
2021/03/30 10:12:32;;;;;;;4.68;2.90;;;;;;;;;;5056760;28;20031;-59
2021/03/30 10:14:59;;;;;;;6.43;3.05;;;;;;;;;;5056119;28;20063;-59
2021/03/30 10:17:26;;;;;;;4.40;2.50;;;;;;;;;;5038398;28;20061;-59
2021/03/30 10:19:53;;;;;;;5.07;2.90;;;;;;;;;;5056238;28;20032;-59
2021/03/30 10:22:35;;;;;;;8.27;3.42;;;;;;;;;;5038015;28;20497;-59
2021/03/30 10:25:17;;;;;;;4.55;2.63;;;;;;;;;;5056471;28;20120;-59
2021/03/30 10:28:00;;;;;;;5.47;2.75;;;;;;;;;;5056244;28;20134;-59
2021/03/30 10:30:33;;;;;;;4.10;2.10;;;;;;;;;;5038395;28;20017;-59
2021/03/30 10:33:03;;;;;;;6.68;3.03;;;;;;;;;;5056532;28;20021;-59
2021/03/30 10:35:31;;;;;;;4.05;2.38;;;;;;;;;;5038844;28;20394;-59
2021/03/30 10:37:57;;;;;;;6.63;3.17;;;;;;;;;;5055697;28;20090;-60
2021/03/30 10:40:53;;;;;;;4.72;3.15;;;;;;;;;;5037888;28;20017;-60
2021/03/30 10:43:20;;;;;;;5.95;3.15;;;;;;;;;;5017297;28;20040;-60
2021/03/30 10:45:46;;;;;;;8.13;4.00;;;;;;;;;;5037923;28;20037;-58
2021/03/30 10:48:12;;;;;;;5.00;3.03;;;;;;;;;;5055329;28;20029;-59
2021/03/30 10:50:39;;;;;;;5.60;3.30;;;;;;;;;;5055453;28;20459;-59
2021/03/30 10:53:06;;;;;;;5.53;3.13;;;;;;;;;;5056009;28;20418;-59
2021/03/30 10:55:32;;;;;;;5.32;3.17;;;;;;;;;;5055666;28;20051;-59
2021/03/30 10:57:58;;;;;;;3.13;2.58;;;;;;;;;;5055777;28;20071;-59
2021/03/30 11:00:25;;;;;;;5.15;3.03;;;;;;;;;;5055548;28;20032;-58
2021/03/30 11:02:54;;;;;;;4.60;3.03;;;;;;;;;;5055896;28;20079;-59
2021/03/30 11:05:20;;;;;;;7.93;3.05;;;;;;;;;;5055227;28;20037;-59
2021/03/30 11:07:46;;;;;;;3.42;2.58;;;;;;;;;;5055171;28;20585;-57
2021/03/30 11:10:12;;;;;;;4.57;2.63;;;;;;;;;;5055257;28;20065;-57
2021/03/30 11:12:40;;;;;;;4.88;3.15;;;;;;;;;;5055890;28;20040;-57
2021/03/30 11:15:06;;;;;;;3.65;2.55;;;;;;;;;;5055229;28;20293;-57
2021/03/30 11:17:32;;;;;;;4.03;2.92;;;;;;;;;;5037235;28;20025;-57
2021/03/30 11:19:58;;;;;;;4.68;2.95;;;;;;;;;;5055014;28;20071;-57
2021/03/30 11:22:24;;;;;;;5.78;3.13;;;;;;;;;;5055493;28;20048;-57
2021/03/30 11:24:56;;;;;;;5.45;3.28;;;;;;;;;;5054958;28;20025;-57
2021/03/30 11:27:23;;;;;;;5.28;3.17;;;;;;;;;;5055137;28;20033;-57
2021/03/30 11:30:06;;;;;;;6.40;3.22;;;;;;;;;;5055059;28;20293;-57
2021/03/30 11:32:40;;;;;;;5.50;3.20;;;;;;;;;;5055576;28;20138;-57
2021/03/30 11:35:12;;;;;;;4.53;2.83;;;;;;;;;;5054371;28;20028;-57
2021/03/30 11:40:13;;;;;;;4.60;2.65;;;;;;;;;;5054303;28;20029;-58
2021/03/30 11:42:39;;;;;;;4.85;2.83;;;;;;;;;;5054822;28;20569;-57
2021/03/30 11:45:06;;;;;;;4.00;3.03;;;;;;;;;;5054362;28;20029;-57
2021/03/30 11:47:32;;;;;;;3.90;2.55;;;;;;;;;;5054504;28;20167;-57
2021/03/30 11:49:58;;;;;;;5.80;2.95;;;;;;;;;;5054184;28;20013;-58
2021/03/30 11:52:24;;;;;;;3.75;2.47;;;;;;;;;;5054976;28;20028;-57
2021/03/30 11:54:50;;;;;;;4.80;3.05;;;;;;;;;;5054540;28;20025;-57
2021/03/30 11:57:18;;;;;;;3.88;2.85;;;;;;;;;;5054767;28;20017;-57
2021/03/30 11:59:44;;;;;;;4.20;3.30;;;;;;;;;;5054479;28;20021;-58
2021/03/30 12:02:10;;;;;;;5.20;3.55;;;;;;;;;;5054511;28;20516;-57
2021/03/30 12:04:36;;;;;;;4.50;2.67;;;;;;;;;;5055053;28;20120;-58
2021/03/30 12:07:02;;;;;;;4.30;2.90;;;;;;;;;;5054338;28;20032;-57
2021/03/30 12:09:28;;;;;;;5.65;3.70;;;;;;;;;;5054061;28;20371;-57
2021/03/30 12:11:54;;;;;;;5.07;3.35;;;;;;;;;;5036201;28;20459;-57
2021/03/30 12:14:20;;;;;;;4.93;3.42;;;;;;;;;;5054491;28;20071;-57
2021/03/30 12:16:49;;;;;;;4.53;2.72;;;;;;;;;;5054012;28;20021;-58
2021/03/30 12:19:15;;;;;;;4.10;2.45;;;;;;;;;;5053808;28;20069;-58
2021/03/30 12:21:41;;;;;;;3.15;2.55;;;;;;;;;;5054227;28;20056;-58
2021/03/30 12:24:08;;;;;;;3.83;2.45;;;;;;;;;;5053878;28;20029;-58
2021/03/30 12:26:33;;;;;;;3.17;2.35;;;;;;;;;;5053275;28;20095;-57
2021/03/30 12:29:02;;;;;;;5.85;2.85;;;;;;;;;;5054227;28;20061;-58
2021/03/30 12:31:28;;;;;;;3.35;2.40;;;;;;;;;;5053277;28;20416;-57
2021/03/30 12:33:54;;;;;;;4.55;2.67;;;;;;;;;;5053962;28;20136;-58
2021/03/30 12:36:20;;;;;;;2.60;1.75;;;;;;;;;;5054155;28;20067;-57
2021/03/30 12:38:46;;;;;;;5.78;2.70;;;;;;;;;;5053344;28;20017;-58
2021/03/30 12:41:12;;;;;;;3.17;2.00;;;;;;;;;;5053394;28;20021;-58
2021/03/30 12:43:38;;;;;;;2.72;1.80;;;;;;;;;;5054127;28;20033;-58
2021/03/30 12:46:04;;;;;;;5.95;3.03;;;;;;;;;;5053118;28;20382;-58
2021/03/30 12:48:30;;;;;;;4.07;2.53;;;;;;;;;;5053411;28;20414;-58
2021/03/30 12:50:56;;;;;;;4.82;3.13;;;;;;;;;;5054151;28;20039;-58
2021/03/30 12:53:23;;;;;;;3.67;2.55;;;;;;;;;;5053596;28;20029;-58
2021/03/30 12:55:49;;;;;;;5.25;2.80;;;;;;;;;;5053378;28;20075;-58
2021/03/30 12:58:15;;;;;;;3.05;2.22;;;;;;;;;;5035442;28;20029;-58
2021/03/30 13:00:41;;;;;;;3.45;1.77;;;;;;;;;;5053425;28;20573;-58
2021/03/30 13:03:07;;;;;;;4.00;2.55;;;;;;;;;;5053242;28;20124;-58
2021/03/30 13:05:33;;;;;;;3.85;2.40;;;;;;;;;;5053026;28;20223;-58
2021/03/30 13:07:59;;;;;;;4.32;2.60;;;;;;;;;;5052933;28;20028;-58
2021/03/30 13:10:25;;;;;;;4.63;2.72;;;;;;;;;;5053086;28;20021;-58
2021/03/30 13:12:51;;;;;;;3.05;2.17;;;;;;;;;;5053793;28;20078;-58
2021/03/30 13:15:17;;;;;;;4.40;2.00;;;;;;;;;;5053240;28;20017;-58
2021/03/30 13:17:43;;;;;;;3.85;2.70;;;;;;;;;;5053684;28;20023;-58
2021/03/30 13:22:58;;;;;;;5.25;2.85;;;;;;;;;;5052973;28;20031;-58
2021/03/30 13:25:33;;;;;;;3.90;2.63;;;;;;;;;;5053668;28;20032;-58
2021/03/30 13:28:05;;;;;;;3.70;2.30;;;;;;;;;;5053071;28;20526;-59
2021/03/30 13:30:31;;;;;;;5.70;2.80;;;;;;;;;;5052843;28;20051;-58
2021/03/30 13:32:57;;;;;;;7.57;2.60;;;;;;;;;;5053204;28;20040;-58
2021/03/30 13:35:24;;;;;;;5.05;2.67;;;;;;;;;;5053310;28;20025;-58
2021/03/30 13:37:50;;;;;;;4.35;2.40;;;;;;;;;;5053053;28;20032;-58
2021/03/30 13:40:17;;;;;;;3.80;2.78;;;;;;;;;;5053514;28;20358;-58
2021/03/30 13:42:43;;;;;;;3.25;2.28;;;;;;;;;;5052957;28;20060;-58
2021/03/30 13:45:10;;;;;;;3.67;2.13;;;;;;;;;;5053070;28;20415;-58
2021/03/30 13:47:36;;;;;;;3.95;2.65;;;;;;;;;;5052891;28;20064;-58
2021/03/30 13:50:02;;;;;;;5.88;3.00;;;;;;;;;;5053163;28;20417;-58
2021/03/30 13:52:28;;;;;;;3.83;2.97;;;;;;;;;;5053199;28;20339;-58
2021/03/30 13:54:54;;;;;;;3.72;2.78;;;;;;;;;;5052593;28;20028;-58
2021/03/30 13:57:20;;;;;;;3.65;2.95;;;;;;;;;;5052631;28;20057;-58
2021/03/30 13:59:46;;;;;;;3.97;2.90;;;;;;;;;;5052501;28;20025;-58
2021/03/30 14:02:12;;;;;;;5.28;3.00;;;;;;;;;;5052580;28;20459;-58
2021/03/30 14:04:38;;;;;;;5.47;2.97;;;;;;;;;;5052304;28;20049;-58
2021/03/30 14:07:05;;;;;;;4.20;3.30;;;;;;;;;;5052566;28;20025;-58
2021/03/30 14:09:33;;;;;;;6.10;4.25;;;;;;;;;;5052580;28;20021;-58
2021/03/30 14:12:03;;;;;;;4.43;3.20;;;;;;;;;;5052571;28;20099;-58
2021/03/30 14:14:55;;;;;;;4.63;2.97;;;;;;;;;;5052449;28;20025;-58
2021/03/30 14:17:27;;;;;;;5.18;2.83;;;;;;;;;;5051605;28;20034;-58
2021/03/30 14:19:57;;;;;;;3.33;2.28;;;;;;;;;;5052582;28;20017;-58
2021/03/30 14:22:33;;;;;;;3.97;2.70;;;;;;;;;;5053132;28;20021;-58
2021/03/30 14:25:02;;;;;;;6.95;3.17;;;;;;;;;;5052647;28;20028;-58
2021/03/30 14:27:29;;;;;;;5.30;3.30;;;;;;;;;;5052705;28;20029;-58
2021/03/30 14:29:55;;;;;;;3.70;2.85;;;;;;;;;;5052391;28;20021;-58
2021/03/30 14:32:22;;;;;;;4.93;3.47;;;;;;;;;;5055349;28;20017;-58
2021/03/30 14:34:49;;;;;;;4.90;3.03;;;;;;;;;;5056609;28;20025;-58
2021/03/30 14:37:18;;;;;;;5.05;2.90;;;;;;;;;;5056543;28;20100;-58
2021/03/30 14:39:45;;;;;;;5.35;2.97;;;;;;;;;;5056347;28;20032;-58
2021/03/30 14:42:14;;;;;;;4.20;2.92;;;;;;;;;;5055705;28;20447;-59
2021/03/30 14:45:00;;;;;;;4.57;2.95;;;;;;;;;;5056161;28;20375;-58
2021/03/30 14:53:15;;;;;;;4.78;2.70;;;;;;;;;;5055848;28;20550;-58
2021/03/30 14:55:56;;;;;;;5.40;3.17;;;;;;;;;;5055929;28;20028;-58
2021/03/30 15:03:31;;;;;;;3.70;2.83;;;;;;;;;;5055726;28;20156;-58
2021/03/30 15:05:57;;;;;;;3.53;2.42;;;;;;;;;;5055477;28;20187;-58
2021/03/30 15:08:24;;;;;;;4.07;2.90;;;;;;;;;;5055096;28;20059;-58
2021/03/30 15:10:50;;;;;;;3.95;3.17;;;;;;;;;;5055369;28;20409;-58
2021/03/30 15:13:15;;;;;;;5.97;3.08;;;;;;;;;;5055983;28;20021;-58
2021/03/30 15:15:42;;;;;;;4.32;2.72;;;;;;;;;;5021029;28;20023;-58
2021/03/30 15:18:08;;;;;;;4.03;3.08;;;;;;;;;;5055401;28;20024;-58
2021/03/30 15:20:34;;;;;;;3.88;3.20;;;;;;;;;;5055280;28;20371;-58
2021/03/30 15:23:00;;;;;;;3.63;2.55;;;;;;;;;;5055299;28;20079;-58
2021/03/30 15:25:26;;;;;;;2.90;1.92;;;;;;;;;;5055152;28;20030;-58
2021/03/30 15:27:53;;;;;;;3.50;2.13;;;;;;;;;;5054913;28;20027;-58
2021/03/30 15:30:19;;;;;;;6.68;2.70;;;;;;;;;;5054817;28;20049;-58
2021/03/30 15:32:45;;;;;;;6.35;2.70;;;;;;;;;;5055188;28;20021;-58
2021/03/30 15:35:11;;;;;;;3.65;2.63;;;;;;;;;;5054978;28;20029;-58
2021/03/30 15:37:38;;;;;;;4.85;2.30;;;;;;;;;;5054864;28;20036;-58
2021/03/30 15:40:08;;;;;;;3.25;2.47;;;;;;;;;;5054394;28;20095;-58
2021/03/30 15:42:35;;;;;;;4.07;2.83;;;;;;;;;;5054115;28;20039;-58
2021/03/30 15:47:36;;;;;;;6.60;2.60;;;;;;;;;;5054901;28;20036;-58
2021/03/30 15:50:06;;;;;;;7.07;2.53;;;;;;;;;;5054812;28;20484;-58
2021/03/30 15:52:33;;;;;;;3.60;2.13;;;;;;;;;;5055560;28;20029;-58
2021/03/30 15:55:05;;;;;;;11.07;2.75;;;;;;;;;;5054707;28;20106;-59